sensor_id;sensor_type;location;lat;lon;timestamp;P1;durP1;ratioP1;P2;durP2;ratioP2
10174;SDS011;18221;38.704;0.152;2023-09-19T00:11:22;5.77;;;3.37;;
10174;SDS011;18221;38.704;0.152;2023-09-19T00:13:51;6.67;;;3.67;;
10174;SDS011;18221;38.704;0.152;2023-09-19T00:16:20;6.50;;;3.60;;
10174;SDS011;18221;38.704;0.152;2023-09-19T00:18:48;6.17;;;3.97;;
10174;SDS011;18221;38.704;0.152;2023-09-19T00:21:17;7.43;;;3.47;;
10174;SDS011;18221;38.704;0.152;2023-09-19T00:23:45;4.90;;;3.13;;
10174;SDS011;18221;38.704;0.152;2023-09-19T00:26:12;5.63;;;3.57;;
10174;SDS011;18221;38.704;0.152;2023-09-19T00:28:42;7.43;;;3.47;;
10174;SDS011;18221;38.704;0.152;2023-09-19T00:31:10;9.10;;;3.70;;
10174;SDS011;18221;38.704;0.152;2023-09-19T00:33:38;6.50;;;3.63;;
10174;SDS011;18221;38.704;0.152;2023-09-19T00:36:06;6.87;;;3.63;;
10174;SDS011;18221;38.704;0.152;2023-09-19T00:38:34;7.20;;;3.80;;
10174;SDS011;18221;38.704;0.152;2023-09-19T00:41:02;5.37;;;3.77;;
10174;SDS011;18221;38.704;0.152;2023-09-19T00:43:30;6.80;;;3.87;;
10174;SDS011;18221;38.704;0.152;2023-09-19T00:46:01;7.37;;;3.87;;
10174;SDS011;18221;38.704;0.152;2023-09-19T00:48:31;8.07;;;3.90;;
10174;SDS011;18221;38.704;0.152;2023-09-19T00:51:09;5.00;;;3.90;;
10174;SDS011;18221;38.704;0.152;2023-09-19T00:53:39;5.87;;;3.67;;
10174;SDS011;18221;38.704;0.152;2023-09-19T00:56:11;5.23;;;3.53;;
10174;SDS011;18221;38.704;0.152;2023-09-19T00:58:40;5.70;;;3.93;;
10174;SDS011;18221;38.704;0.152;2023-09-19T01:01:10;8.53;;;4.03;;
10174;SDS011;18221;38.704;0.152;2023-09-19T01:03:40;6.80;;;4.10;;
10174;SDS011;18221;38.704;0.152;2023-09-19T01:06:08;5.60;;;3.80;;
10174;SDS011;18221;38.704;0.152;2023-09-19T01:08:36;5.97;;;4.20;;
10174;SDS011;18221;38.704;0.152;2023-09-19T01:11:07;5.97;;;3.93;;
10174;SDS011;18221;38.704;0.152;2023-09-19T01:13:48;4.23;;;3.40;;
10174;SDS011;18221;38.704;0.152;2023-09-19T01:16:31;4.63;;;3.60;;
10174;SDS011;18221;38.704;0.152;2023-09-19T01:22:47;5.53;;;3.63;;
10174;SDS011;18221;38.704;0.152;2023-09-19T01:25:35;4.60;;;3.10;;
10174;SDS011;18221;38.704;0.152;2023-09-19T01:28:53;5.77;;;3.53;;
10174;SDS011;18221;38.704;0.152;2023-09-19T01:31:46;4.07;;;3.47;;
10174;SDS011;18221;38.704;0.152;2023-09-19T01:34:19;6.63;;;3.60;;
10174;SDS011;18221;38.704;0.152;2023-09-19T01:36:47;6.43;;;3.80;;
10174;SDS011;18221;38.704;0.152;2023-09-19T01:39:15;4.80;;;3.40;;
10174;SDS011;18221;38.704;0.152;2023-09-19T01:41:51;4.87;;;3.20;;
10174;SDS011;18221;38.704;0.152;2023-09-19T01:44:33;4.93;;;3.20;;
10174;SDS011;18221;38.704;0.152;2023-09-19T01:47:19;6.50;;;3.20;;
10174;SDS011;18221;38.704;0.152;2023-09-19T01:49:55;6.20;;;3.27;;
10174;SDS011;18221;38.704;0.152;2023-09-19T01:52:31;6.93;;;3.27;;
10174;SDS011;18221;38.704;0.152;2023-09-19T01:55:13;8.23;;;3.30;;
10174;SDS011;18221;38.704;0.152;2023-09-19T01:57:48;7.80;;;3.30;;
10174;SDS011;18221;38.704;0.152;2023-09-19T02:00:26;4.80;;;3.13;;
10174;SDS011;18221;38.704;0.152;2023-09-19T02:03:00;4.10;;;3.17;;
10174;SDS011;18221;38.704;0.152;2023-09-19T02:05:30;6.17;;;3.30;;
10174;SDS011;18221;38.704;0.152;2023-09-19T02:07:58;6.07;;;3.30;;
10174;SDS011;18221;38.704;0.152;2023-09-19T02:10:26;4.70;;;3.13;;
10174;SDS011;18221;38.704;0.152;2023-09-19T02:12:54;4.57;;;3.07;;
10174;SDS011;18221;38.704;0.152;2023-09-19T02:15:24;4.37;;;2.80;;
10174;SDS011;18221;38.704;0.152;2023-09-19T02:17:52;4.60;;;2.67;;
10174;SDS011;18221;38.704;0.152;2023-09-19T02:20:23;4.20;;;2.90;;
10174;SDS011;18221;38.704;0.152;2023-09-19T02:22:52;5.00;;;2.90;;
10174;SDS011;18221;38.704;0.152;2023-09-19T02:25:20;5.13;;;3.07;;
10174;SDS011;18221;38.704;0.152;2023-09-19T02:27:47;4.90;;;3.10;;
10174;SDS011;18221;38.704;0.152;2023-09-19T02:30:16;7.43;;;3.17;;
10174;SDS011;18221;38.704;0.152;2023-09-19T02:32:46;5.43;;;2.80;;
10174;SDS011;18221;38.704;0.152;2023-09-19T02:35:15;6.53;;;3.10;;
10174;SDS011;18221;38.704;0.152;2023-09-19T02:37:46;4.40;;;2.70;;
10174;SDS011;18221;38.704;0.152;2023-09-19T02:40:14;4.43;;;2.60;;
10174;SDS011;18221;38.704;0.152;2023-09-19T02:42:46;4.97;;;2.70;;
10174;SDS011;18221;38.704;0.152;2023-09-19T02:45:15;4.13;;;2.70;;
10174;SDS011;18221;38.704;0.152;2023-09-19T02:47:44;5.37;;;2.63;;
10174;SDS011;18221;38.704;0.152;2023-09-19T02:50:13;5.13;;;2.50;;
10174;SDS011;18221;38.704;0.152;2023-09-19T02:52:43;4.33;;;2.80;;
10174;SDS011;18221;38.704;0.152;2023-09-19T02:55:14;3.57;;;2.90;;
10174;SDS011;18221;38.704;0.152;2023-09-19T02:57:48;5.97;;;2.70;;
10174;SDS011;18221;38.704;0.152;2023-09-19T03:00:17;4.60;;;2.80;;
10174;SDS011;18221;38.704;0.152;2023-09-19T03:02:47;4.97;;;3.03;;
10174;SDS011;18221;38.704;0.152;2023-09-19T03:05:15;5.80;;;3.27;;
10174;SDS011;18221;38.704;0.152;2023-09-19T03:07:46;5.13;;;2.77;;
10174;SDS011;18221;38.704;0.152;2023-09-19T03:10:15;4.63;;;2.97;;
10174;SDS011;18221;38.704;0.152;2023-09-19T03:12:44;3.73;;;2.70;;
10174;SDS011;18221;38.704;0.152;2023-09-19T03:15:13;4.30;;;2.83;;
10174;SDS011;18221;38.704;0.152;2023-09-19T03:17:42;3.57;;;2.73;;
10174;SDS011;18221;38.704;0.152;2023-09-19T03:20:11;5.27;;;2.70;;
10174;SDS011;18221;38.704;0.152;2023-09-19T03:22:42;4.63;;;3.10;;
10174;SDS011;18221;38.704;0.152;2023-09-19T03:25:12;5.40;;;2.70;;
10174;SDS011;18221;38.704;0.152;2023-09-19T03:27:40;6.20;;;2.90;;
10174;SDS011;18221;38.704;0.152;2023-09-19T03:30:09;5.43;;;2.90;;
10174;SDS011;18221;38.704;0.152;2023-09-19T03:32:43;4.77;;;2.93;;
10174;SDS011;18221;38.704;0.152;2023-09-19T03:35:15;4.57;;;2.50;;
10174;SDS011;18221;38.704;0.152;2023-09-19T03:37:43;5.30;;;2.97;;
10174;SDS011;18221;38.704;0.152;2023-09-19T03:40:13;4.33;;;2.63;;
10174;SDS011;18221;38.704;0.152;2023-09-19T03:42:45;3.20;;;2.63;;
10174;SDS011;18221;38.704;0.152;2023-09-19T03:45:13;4.50;;;2.97;;
10174;SDS011;18221;38.704;0.152;2023-09-19T03:47:41;5.37;;;3.10;;
10174;SDS011;18221;38.704;0.152;2023-09-19T03:50:12;2.73;;;2.40;;
10174;SDS011;18221;38.704;0.152;2023-09-19T03:52:42;3.27;;;2.63;;
10174;SDS011;18221;38.704;0.152;2023-09-19T03:55:10;4.93;;;2.67;;
10174;SDS011;18221;38.704;0.152;2023-09-19T03:57:40;4.13;;;2.87;;
10174;SDS011;18221;38.704;0.152;2023-09-19T04:00:08;4.40;;;2.60;;
10174;SDS011;18221;38.704;0.152;2023-09-19T04:02:39;4.73;;;2.83;;
10174;SDS011;18221;38.704;0.152;2023-09-19T04:05:08;4.10;;;2.67;;
10174;SDS011;18221;38.704;0.152;2023-09-19T04:07:36;3.80;;;2.63;;
10174;SDS011;18221;38.704;0.152;2023-09-19T04:10:04;4.90;;;2.90;;
10174;SDS011;18221;38.704;0.152;2023-09-19T04:12:35;4.73;;;2.87;;
10174;SDS011;18221;38.704;0.152;2023-09-19T04:15:04;3.00;;;2.50;;
10174;SDS011;18221;38.704;0.152;2023-09-19T04:17:34;4.10;;;2.60;;
10174;SDS011;18221;38.704;0.152;2023-09-19T04:20:01;4.60;;;2.33;;
10174;SDS011;18221;38.704;0.152;2023-09-19T04:22:32;3.70;;;3.03;;
10174;SDS011;18221;38.704;0.152;2023-09-19T04:25:00;6.30;;;3.03;;
10174;SDS011;18221;38.704;0.152;2023-09-19T04:27:32;2.80;;;2.30;;
10174;SDS011;18221;38.704;0.152;2023-09-19T04:30:01;5.77;;;2.73;;
10174;SDS011;18221;38.704;0.152;2023-09-19T04:32:35;4.73;;;2.83;;
10174;SDS011;18221;38.704;0.152;2023-09-19T04:35:05;3.40;;;2.43;;
10174;SDS011;18221;38.704;0.152;2023-09-19T04:37:36;4.33;;;2.67;;
10174;SDS011;18221;38.704;0.152;2023-09-19T04:40:06;4.23;;;2.37;;
10174;SDS011;18221;38.704;0.152;2023-09-19T04:42:42;5.70;;;2.73;;
10174;SDS011;18221;38.704;0.152;2023-09-19T04:45:13;3.60;;;2.40;;
10174;SDS011;18221;38.704;0.152;2023-09-19T04:47:41;5.10;;;2.93;;
10174;SDS011;18221;38.704;0.152;2023-09-19T04:50:10;4.00;;;2.80;;
10174;SDS011;18221;38.704;0.152;2023-09-19T04:52:39;4.93;;;2.50;;
10174;SDS011;18221;38.704;0.152;2023-09-19T04:55:09;4.97;;;2.50;;
10174;SDS011;18221;38.704;0.152;2023-09-19T04:57:39;4.77;;;3.00;;
10174;SDS011;18221;38.704;0.152;2023-09-19T05:00:07;4.80;;;3.07;;
10174;SDS011;18221;38.704;0.152;2023-09-19T05:02:39;4.70;;;2.90;;
10174;SDS011;18221;38.704;0.152;2023-09-19T05:05:08;5.30;;;2.80;;
10174;SDS011;18221;38.704;0.152;2023-09-19T05:07:38;4.00;;;2.77;;
10174;SDS011;18221;38.704;0.152;2023-09-19T05:10:10;4.20;;;2.90;;
10174;SDS011;18221;38.704;0.152;2023-09-19T05:12:39;7.20;;;3.00;;
10174;SDS011;18221;38.704;0.152;2023-09-19T05:15:12;4.50;;;2.80;;
10174;SDS011;18221;38.704;0.152;2023-09-19T05:17:43;6.03;;;2.60;;
10174;SDS011;18221;38.704;0.152;2023-09-19T05:20:17;3.63;;;2.77;;
10174;SDS011;18221;38.704;0.152;2023-09-19T05:22:50;5.10;;;2.80;;
10174;SDS011;18221;38.704;0.152;2023-09-19T05:25:26;5.83;;;3.10;;
10174;SDS011;18221;38.704;0.152;2023-09-19T05:27:56;5.80;;;3.10;;
10174;SDS011;18221;38.704;0.152;2023-09-19T05:30:25;6.77;;;2.87;;
10174;SDS011;18221;38.704;0.152;2023-09-19T05:32:55;4.97;;;2.90;;
10174;SDS011;18221;38.704;0.152;2023-09-19T05:35:23;6.93;;;3.03;;
10174;SDS011;18221;38.704;0.152;2023-09-19T05:37:52;4.97;;;3.17;;
10174;SDS011;18221;38.704;0.152;2023-09-19T05:40:21;6.93;;;3.53;;
10174;SDS011;18221;38.704;0.152;2023-09-19T05:42:50;4.40;;;3.00;;
10174;SDS011;18221;38.704;0.152;2023-09-19T05:45:18;7.20;;;3.40;;
10174;SDS011;18221;38.704;0.152;2023-09-19T05:47:48;4.63;;;2.67;;
10174;SDS011;18221;38.704;0.152;2023-09-19T05:50:18;4.73;;;2.80;;
10174;SDS011;18221;38.704;0.152;2023-09-19T05:52:51;4.67;;;2.50;;
10174;SDS011;18221;38.704;0.152;2023-09-19T05:55:22;5.63;;;2.83;;
10174;SDS011;18221;38.704;0.152;2023-09-19T05:57:50;4.17;;;2.60;;
10174;SDS011;18221;38.704;0.152;2023-09-19T06:00:19;3.50;;;2.17;;
10174;SDS011;18221;38.704;0.152;2023-09-19T06:02:51;4.03;;;2.50;;
10174;SDS011;18221;38.704;0.152;2023-09-19T06:05:21;5.90;;;2.70;;
10174;SDS011;18221;38.704;0.152;2023-09-19T06:07:52;5.03;;;2.80;;
10174;SDS011;18221;38.704;0.152;2023-09-19T06:10:20;5.40;;;2.60;;
10174;SDS011;18221;38.704;0.152;2023-09-19T06:12:48;5.37;;;2.50;;
10174;SDS011;18221;38.704;0.152;2023-09-19T06:15:17;3.50;;;2.60;;
10174;SDS011;18221;38.704;0.152;2023-09-19T06:17:46;5.10;;;3.07;;
10174;SDS011;18221;38.704;0.152;2023-09-19T06:20:15;5.23;;;2.90;;
10174;SDS011;18221;38.704;0.152;2023-09-19T06:22:46;4.70;;;2.60;;
10174;SDS011;18221;38.704;0.152;2023-09-19T06:25:15;4.67;;;2.80;;
10174;SDS011;18221;38.704;0.152;2023-09-19T06:27:45;6.33;;;2.87;;
10174;SDS011;18221;38.704;0.152;2023-09-19T06:30:14;4.13;;;2.90;;
10174;SDS011;18221;38.704;0.152;2023-09-19T06:32:42;5.83;;;2.80;;
10174;SDS011;18221;38.704;0.152;2023-09-19T06:35:11;3.83;;;2.67;;
10174;SDS011;18221;38.704;0.152;2023-09-19T06:37:41;6.03;;;2.80;;
10174;SDS011;18221;38.704;0.152;2023-09-19T06:40:12;4.73;;;2.60;;
10174;SDS011;18221;38.704;0.152;2023-09-19T06:42:42;5.40;;;2.70;;
10174;SDS011;18221;38.704;0.152;2023-09-19T06:45:11;2.93;;;2.40;;
10174;SDS011;18221;38.704;0.152;2023-09-19T06:47:43;5.80;;;3.03;;
10174;SDS011;18221;38.704;0.152;2023-09-19T06:50:14;5.93;;;2.93;;
10174;SDS011;18221;38.704;0.152;2023-09-19T06:52:44;5.40;;;3.07;;
10174;SDS011;18221;38.704;0.152;2023-09-19T06:55:16;4.97;;;2.70;;
10174;SDS011;18221;38.704;0.152;2023-09-19T06:57:45;4.80;;;2.90;;
10174;SDS011;18221;38.704;0.152;2023-09-19T07:00:14;3.53;;;2.60;;
10174;SDS011;18221;38.704;0.152;2023-09-19T07:02:44;4.97;;;2.73;;
10174;SDS011;18221;38.704;0.152;2023-09-19T07:05:12;4.77;;;2.93;;
10174;SDS011;18221;38.704;0.152;2023-09-19T07:07:40;3.83;;;2.93;;
10174;SDS011;18221;38.704;0.152;2023-09-19T07:10:09;5.63;;;3.13;;
10174;SDS011;18221;38.704;0.152;2023-09-19T07:12:39;5.43;;;3.30;;
10174;SDS011;18221;38.704;0.152;2023-09-19T07:15:08;6.63;;;3.50;;
10174;SDS011;18221;38.704;0.152;2023-09-19T07:17:36;7.27;;;2.97;;
10174;SDS011;18221;38.704;0.152;2023-09-19T07:20:05;5.83;;;2.80;;
10174;SDS011;18221;38.704;0.152;2023-09-19T07:22:34;7.27;;;2.90;;
10174;SDS011;18221;38.704;0.152;2023-09-19T07:25:04;4.90;;;2.83;;
10174;SDS011;18221;38.704;0.152;2023-09-19T07:27:33;5.47;;;3.10;;
10174;SDS011;18221;38.704;0.152;2023-09-19T07:30:03;6.60;;;3.30;;
10174;SDS011;18221;38.704;0.152;2023-09-19T07:32:33;6.47;;;3.20;;
10174;SDS011;18221;38.704;0.152;2023-09-19T07:35:01;4.97;;;3.20;;
10174;SDS011;18221;38.704;0.152;2023-09-19T07:37:30;4.93;;;2.80;;
10174;SDS011;18221;38.704;0.152;2023-09-19T07:39:59;5.23;;;2.97;;
10174;SDS011;18221;38.704;0.152;2023-09-19T07:42:28;5.00;;;2.97;;
10174;SDS011;18221;38.704;0.152;2023-09-19T07:44:57;4.93;;;3.50;;
10174;SDS011;18221;38.704;0.152;2023-09-19T07:47:26;6.80;;;3.10;;
10174;SDS011;18221;38.704;0.152;2023-09-19T07:49:55;5.03;;;3.30;;
10174;SDS011;18221;38.704;0.152;2023-09-19T07:52:24;7.13;;;3.40;;
10174;SDS011;18221;38.704;0.152;2023-09-19T07:54:53;4.77;;;3.40;;
10174;SDS011;18221;38.704;0.152;2023-09-19T07:57:22;5.17;;;3.60;;
10174;SDS011;18221;38.704;0.152;2023-09-19T07:59:50;6.13;;;3.10;;
10174;SDS011;18221;38.704;0.152;2023-09-19T08:02:18;7.20;;;3.10;;
10174;SDS011;18221;38.704;0.152;2023-09-19T08:04:49;5.83;;;3.17;;
10174;SDS011;18221;38.704;0.152;2023-09-19T08:07:17;7.83;;;3.20;;
10174;SDS011;18221;38.704;0.152;2023-09-19T08:09:45;12.70;;;3.63;;
10174;SDS011;18221;38.704;0.152;2023-09-19T08:12:14;6.07;;;3.37;;
10174;SDS011;18221;38.704;0.152;2023-09-19T08:14:42;7.33;;;3.70;;
10174;SDS011;18221;38.704;0.152;2023-09-19T08:17:10;10.63;;;3.37;;
10174;SDS011;18221;38.704;0.152;2023-09-19T08:19:38;7.20;;;3.40;;
10174;SDS011;18221;38.704;0.152;2023-09-19T08:22:09;5.77;;;3.30;;
10174;SDS011;18221;38.704;0.152;2023-09-19T08:24:37;6.60;;;2.97;;
10174;SDS011;18221;38.704;0.152;2023-09-19T08:27:08;4.30;;;3.20;;
10174;SDS011;18221;38.704;0.152;2023-09-19T08:29:37;4.97;;;3.37;;
10174;SDS011;18221;38.704;0.152;2023-09-19T08:32:05;6.87;;;2.93;;
10174;SDS011;18221;38.704;0.152;2023-09-19T08:34:33;6.00;;;3.20;;
10174;SDS011;18221;38.704;0.152;2023-09-19T08:37:03;4.20;;;2.87;;
10174;SDS011;18221;38.704;0.152;2023-09-19T08:39:35;6.30;;;3.10;;
10174;SDS011;18221;38.704;0.152;2023-09-19T08:42:03;5.73;;;3.00;;
10174;SDS011;18221;38.704;0.152;2023-09-19T08:44:35;5.13;;;2.97;;
10174;SDS011;18221;38.704;0.152;2023-09-19T08:47:08;4.13;;;3.10;;
10174;SDS011;18221;38.704;0.152;2023-09-19T08:49:41;5.00;;;3.40;;
10174;SDS011;18221;38.704;0.152;2023-09-19T08:52:20;5.90;;;3.47;;
10174;SDS011;18221;38.704;0.152;2023-09-19T08:54:59;6.17;;;3.53;;
10174;SDS011;18221;38.704;0.152;2023-09-19T08:57:35;9.77;;;3.63;;
10174;SDS011;18221;38.704;0.152;2023-09-19T09:00:07;5.30;;;3.70;;
10174;SDS011;18221;38.704;0.152;2023-09-19T09:02:40;6.33;;;3.43;;
10174;SDS011;18221;38.704;0.152;2023-09-19T09:05:10;7.27;;;3.37;;
10174;SDS011;18221;38.704;0.152;2023-09-19T09:07:39;4.97;;;2.90;;
10174;SDS011;18221;38.704;0.152;2023-09-19T09:10:10;4.63;;;3.33;;
10174;SDS011;18221;38.704;0.152;2023-09-19T09:12:38;4.63;;;3.33;;
10174;SDS011;18221;38.704;0.152;2023-09-19T09:15:09;5.80;;;3.10;;
10174;SDS011;18221;38.704;0.152;2023-09-19T09:17:41;6.77;;;3.17;;
10174;SDS011;18221;38.704;0.152;2023-09-19T09:20:10;7.87;;;3.20;;
10174;SDS011;18221;38.704;0.152;2023-09-19T09:22:38;8.57;;;3.37;;
10174;SDS011;18221;38.704;0.152;2023-09-19T09:25:19;5.53;;;3.43;;
10174;SDS011;18221;38.704;0.152;2023-09-19T09:27:58;6.07;;;3.23;;
10174;SDS011;18221;38.704;0.152;2023-09-19T09:30:34;8.63;;;3.90;;
10174;SDS011;18221;38.704;0.152;2023-09-19T09:33:10;6.33;;;3.10;;
10174;SDS011;18221;38.704;0.152;2023-09-19T09:35:47;7.13;;;3.37;;
10174;SDS011;18221;38.704;0.152;2023-09-19T09:38:22;6.17;;;3.27;;
10174;SDS011;18221;38.704;0.152;2023-09-19T09:40:54;7.57;;;3.53;;
10174;SDS011;18221;38.704;0.152;2023-09-19T09:43:32;5.43;;;3.10;;
10174;SDS011;18221;38.704;0.152;2023-09-19T09:49:05;7.13;;;3.30;;
10174;SDS011;18221;38.704;0.152;2023-09-19T09:51:58;4.97;;;3.30;;
10174;SDS011;18221;38.704;0.152;2023-09-19T09:54:31;5.03;;;3.30;;
10174;SDS011;18221;38.704;0.152;2023-09-19T09:57:04;6.50;;;3.43;;
10174;SDS011;18221;38.704;0.152;2023-09-19T09:59:45;5.53;;;3.27;;
10174;SDS011;18221;38.704;0.152;2023-09-19T10:02:19;7.57;;;3.88;;
10174;SDS011;18221;38.704;0.152;2023-09-19T10:04:54;5.47;;;3.60;;
10174;SDS011;18221;38.704;0.152;2023-09-19T10:07:39;4.93;;;3.30;;
10174;SDS011;18221;38.704;0.152;2023-09-19T10:10:08;5.87;;;3.30;;
10174;SDS011;18221;38.704;0.152;2023-09-19T10:12:46;6.77;;;3.67;;
10174;SDS011;18221;38.704;0.152;2023-09-19T10:15:16;6.83;;;3.53;;
10174;SDS011;18221;38.704;0.152;2023-09-19T10:17:46;6.10;;;3.60;;
10174;SDS011;18221;38.704;0.152;2023-09-19T10:20:16;7.20;;;3.63;;
10174;SDS011;18221;38.704;0.152;2023-09-19T10:22:59;4.87;;;3.30;;
10174;SDS011;18221;38.704;0.152;2023-09-19T10:25:28;9.37;;;3.80;;
10174;SDS011;18221;38.704;0.152;2023-09-19T10:27:59;8.43;;;3.53;;
10174;SDS011;18221;38.704;0.152;2023-09-19T10:30:29;7.53;;;3.50;;
10174;SDS011;18221;38.704;0.152;2023-09-19T10:33:02;7.37;;;3.73;;
10174;SDS011;18221;38.704;0.152;2023-09-19T10:35:32;8.63;;;4.33;;
10174;SDS011;18221;38.704;0.152;2023-09-19T10:38:06;8.23;;;4.40;;
10174;SDS011;18221;38.704;0.152;2023-09-19T10:40:36;9.13;;;4.37;;
10174;SDS011;18221;38.704;0.152;2023-09-19T10:43:12;8.00;;;3.83;;
10174;SDS011;18221;38.704;0.152;2023-09-19T10:45:44;5.97;;;3.83;;
10174;SDS011;18221;38.704;0.152;2023-09-19T10:48:14;5.80;;;3.80;;
10174;SDS011;18221;38.704;0.152;2023-09-19T10:50:46;5.33;;;3.73;;
10174;SDS011;18221;38.704;0.152;2023-09-19T10:53:20;6.73;;;3.90;;
10174;SDS011;18221;38.704;0.152;2023-09-19T10:55:52;9.43;;;4.20;;
10174;SDS011;18221;38.704;0.152;2023-09-19T10:58:27;6.17;;;4.00;;
10174;SDS011;18221;38.704;0.152;2023-09-19T11:01:00;7.03;;;4.13;;
10174;SDS011;18221;38.704;0.152;2023-09-19T11:03:33;10.03;;;3.90;;
10174;SDS011;18221;38.704;0.152;2023-09-19T11:06:03;11.57;;;4.20;;
10174;SDS011;18221;38.704;0.152;2023-09-19T11:11:48;8.23;;;4.23;;
10174;SDS011;18221;38.704;0.152;2023-09-19T11:14:30;5.30;;;3.93;;
10174;SDS011;18221;38.704;0.152;2023-09-19T11:20:20;9.00;;;4.27;;
10174;SDS011;18221;38.704;0.152;2023-09-19T11:23:21;6.90;;;4.13;;
10174;SDS011;18221;38.704;0.152;2023-09-19T11:25:53;5.67;;;3.87;;
10174;SDS011;18221;38.704;0.152;2023-09-19T11:28:28;11.37;;;4.97;;
10174;SDS011;18221;38.704;0.152;2023-09-19T11:31:40;7.67;;;4.20;;
10174;SDS011;18221;38.704;0.152;2023-09-19T11:34:40;8.10;;;4.40;;
10174;SDS011;18221;38.704;0.152;2023-09-19T11:40:44;6.27;;;4.10;;
10174;SDS011;18221;38.704;0.152;2023-09-19T11:43:32;7.20;;;4.23;;
10174;SDS011;18221;38.704;0.152;2023-09-19T11:46:08;6.90;;;3.77;;
10174;SDS011;18221;38.704;0.152;2023-09-19T11:48:39;8.33;;;3.93;;
10174;SDS011;18221;38.704;0.152;2023-09-19T11:51:16;7.80;;;3.87;;
10174;SDS011;18221;38.704;0.152;2023-09-19T11:53:48;8.13;;;3.73;;
10174;SDS011;18221;38.704;0.152;2023-09-19T11:56:17;5.37;;;3.53;;
10174;SDS011;18221;38.704;0.152;2023-09-19T11:58:49;6.73;;;3.70;;
10174;SDS011;18221;38.704;0.152;2023-09-19T12:01:21;6.97;;;4.33;;
10174;SDS011;18221;38.704;0.152;2023-09-19T12:03:56;7.30;;;4.03;;
10174;SDS011;18221;38.704;0.152;2023-09-19T12:06:26;5.67;;;3.90;;
10174;SDS011;18221;38.704;0.152;2023-09-19T12:08:57;6.93;;;3.43;;
10174;SDS011;18221;38.704;0.152;2023-09-19T12:11:27;6.43;;;3.60;;
10174;SDS011;18221;38.704;0.152;2023-09-19T12:13:58;8.40;;;3.73;;
10174;SDS011;18221;38.704;0.152;2023-09-19T12:16:27;6.57;;;3.57;;
10174;SDS011;18221;38.704;0.152;2023-09-19T12:18:57;6.60;;;3.70;;
10174;SDS011;18221;38.704;0.152;2023-09-19T12:21:54;6.93;;;3.40;;
10174;SDS011;18221;38.704;0.152;2023-09-19T12:24:29;6.90;;;3.53;;
10174;SDS011;18221;38.704;0.152;2023-09-19T12:27:00;8.67;;;3.70;;
10174;SDS011;18221;38.704;0.152;2023-09-19T12:29:41;6.60;;;3.43;;
10174;SDS011;18221;38.704;0.152;2023-09-19T12:32:10;9.83;;;3.97;;
10174;SDS011;18221;38.704;0.152;2023-09-19T12:34:49;4.90;;;3.20;;
10174;SDS011;18221;38.704;0.152;2023-09-19T12:37:19;5.43;;;3.57;;
10174;SDS011;18221;38.704;0.152;2023-09-19T12:39:48;4.73;;;3.43;;
10174;SDS011;18221;38.704;0.152;2023-09-19T12:42:20;5.50;;;3.37;;
10174;SDS011;18221;38.704;0.152;2023-09-19T12:44:53;6.33;;;3.43;;
10174;SDS011;18221;38.704;0.152;2023-09-19T12:47:23;7.43;;;4.30;;
10174;SDS011;18221;38.704;0.152;2023-09-19T12:50:08;6.22;;;3.45;;
10174;SDS011;18221;38.704;0.152;2023-09-19T12:52:43;6.40;;;3.60;;
10174;SDS011;18221;38.704;0.152;2023-09-19T12:55:23;5.28;;;3.42;;
10174;SDS011;18221;38.704;0.152;2023-09-19T12:57:59;4.93;;;3.35;;
10174;SDS011;18221;38.704;0.152;2023-09-19T13:00:35;5.60;;;3.20;;
10174;SDS011;18221;38.704;0.152;2023-09-19T13:03:14;6.93;;;3.63;;
10174;SDS011;18221;38.704;0.152;2023-09-19T13:05:54;6.80;;;3.17;;
10174;SDS011;18221;38.704;0.152;2023-09-19T13:08:28;4.72;;;3.58;;
10174;SDS011;18221;38.704;0.152;2023-09-19T13:11:10;5.80;;;3.55;;
10174;SDS011;18221;38.704;0.152;2023-09-19T13:13:43;8.40;;;3.83;;
10174;SDS011;18221;38.704;0.152;2023-09-19T13:16:14;11.80;;;3.65;;
10174;SDS011;18221;38.704;0.152;2023-09-19T13:18:47;8.98;;;3.55;;
10174;SDS011;18221;38.704;0.152;2023-09-19T13:21:28;5.22;;;3.58;;
10174;SDS011;18221;38.704;0.152;2023-09-19T13:24:18;8.57;;;3.90;;
10174;SDS011;18221;38.704;0.152;2023-09-19T13:26:51;6.78;;;3.65;;
10174;SDS011;18221;38.704;0.152;2023-09-19T13:29:19;9.65;;;3.58;;
10174;SDS011;18221;38.704;0.152;2023-09-19T13:31:47;5.38;;;3.38;;
10174;SDS011;18221;38.704;0.152;2023-09-19T13:34:16;8.02;;;3.45;;
10174;SDS011;18221;38.704;0.152;2023-09-19T13:36:46;6.75;;;3.92;;
10174;SDS011;18221;38.704;0.152;2023-09-19T13:39:14;7.78;;;3.85;;
10174;SDS011;18221;38.704;0.152;2023-09-19T13:41:43;8.45;;;3.58;;
10174;SDS011;18221;38.704;0.152;2023-09-19T13:44:20;6.18;;;3.67;;
10174;SDS011;18221;38.704;0.152;2023-09-19T13:46:48;7.65;;;3.22;;
10174;SDS011;18221;38.704;0.152;2023-09-19T13:49:16;6.72;;;3.40;;
10174;SDS011;18221;38.704;0.152;2023-09-19T13:51:46;5.78;;;3.20;;
10174;SDS011;18221;38.704;0.152;2023-09-19T13:54:14;9.43;;;3.60;;
10174;SDS011;18221;38.704;0.152;2023-09-19T13:56:42;8.80;;;3.67;;
10174;SDS011;18221;38.704;0.152;2023-09-19T13:59:10;8.13;;;3.80;;
10174;SDS011;18221;38.704;0.152;2023-09-19T14:01:38;5.75;;;3.20;;
10174;SDS011;18221;38.704;0.152;2023-09-19T14:04:07;6.05;;;3.25;;
10174;SDS011;18221;38.704;0.152;2023-09-19T14:06:36;10.20;;;3.33;;
10174;SDS011;18221;38.704;0.152;2023-09-19T14:09:05;6.47;;;3.38;;
10174;SDS011;18221;38.704;0.152;2023-09-19T14:11:33;8.65;;;3.30;;
10174;SDS011;18221;38.704;0.152;2023-09-19T14:14:01;8.57;;;3.35;;
10174;SDS011;18221;38.704;0.152;2023-09-19T14:16:30;8.57;;;3.13;;
10174;SDS011;18221;38.704;0.152;2023-09-19T14:18:58;8.90;;;3.85;;
10174;SDS011;18221;38.704;0.152;2023-09-19T14:21:26;9.93;;;3.55;;
10174;SDS011;18221;38.704;0.152;2023-09-19T14:23:54;8.18;;;3.45;;
10174;SDS011;18221;38.704;0.152;2023-09-19T14:26:23;8.48;;;3.40;;
10174;SDS011;18221;38.704;0.152;2023-09-19T14:28:52;8.05;;;3.83;;
10174;SDS011;18221;38.704;0.152;2023-09-19T14:31:20;10.87;;;3.40;;
10174;SDS011;18221;38.704;0.152;2023-09-19T14:33:53;9.97;;;3.50;;
10174;SDS011;18221;38.704;0.152;2023-09-19T14:36:23;10.03;;;3.63;;
10174;SDS011;18221;38.704;0.152;2023-09-19T14:38:55;10.77;;;3.40;;
10174;SDS011;18221;38.704;0.152;2023-09-19T14:41:25;13.37;;;4.23;;
10174;SDS011;18221;38.704;0.152;2023-09-19T14:43:54;10.40;;;4.13;;
10174;SDS011;18221;38.704;0.152;2023-09-19T14:46:22;6.93;;;3.30;;
10174;SDS011;18221;38.704;0.152;2023-09-19T14:48:50;9.50;;;4.10;;
10174;SDS011;18221;38.704;0.152;2023-09-19T14:51:19;7.97;;;3.77;;
10174;SDS011;18221;38.704;0.152;2023-09-19T14:53:47;11.83;;;4.03;;
10174;SDS011;18221;38.704;0.152;2023-09-19T14:56:15;13.17;;;4.00;;
10174;SDS011;18221;38.704;0.152;2023-09-19T14:58:46;13.10;;;4.27;;
10174;SDS011;18221;38.704;0.152;2023-09-19T15:01:14;13.23;;;4.10;;
10174;SDS011;18221;38.704;0.152;2023-09-19T15:03:42;14.07;;;4.30;;
10174;SDS011;18221;38.704;0.152;2023-09-19T15:06:11;11.67;;;4.67;;
10174;SDS011;18221;38.704;0.152;2023-09-19T15:08:43;7.87;;;3.90;;
10174;SDS011;18221;38.704;0.152;2023-09-19T15:11:12;13.03;;;4.07;;
10174;SDS011;18221;38.704;0.152;2023-09-19T15:13:42;12.07;;;4.83;;
10174;SDS011;18221;38.704;0.152;2023-09-19T15:16:13;13.30;;;4.03;;
10174;SDS011;18221;38.704;0.152;2023-09-19T15:18:41;11.37;;;3.73;;
10174;SDS011;18221;38.704;0.152;2023-09-19T15:21:13;8.57;;;3.77;;
10174;SDS011;18221;38.704;0.152;2023-09-19T15:23:42;10.77;;;3.67;;
10174;SDS011;18221;38.704;0.152;2023-09-19T15:26:11;9.20;;;3.57;;
10174;SDS011;18221;38.704;0.152;2023-09-19T15:28:45;15.00;;;3.87;;
10174;SDS011;18221;38.704;0.152;2023-09-19T15:31:16;15.10;;;3.90;;
10174;SDS011;18221;38.704;0.152;2023-09-19T15:33:44;11.10;;;3.50;;
10174;SDS011;18221;38.704;0.152;2023-09-19T15:36:12;10.90;;;3.43;;
10174;SDS011;18221;38.704;0.152;2023-09-19T15:38:56;13.37;;;4.17;;